Time;durP1;ratioP1;P1;durP2;ratioP2;P2;SDS_P1;SDS_P2;PMS_P1;PMS_P2;Temp;Humidity;BMP_temperature;BMP_pressure;BME280_temperature;BME280_humidity;BME280_pressure;Samples;Min_cycle;Max_cycle;Signal;HPM_P1;HPM_P2
2023/12/07 00:00:51;;;;;;;8.60;3.30;;;;;;;23.22;31.38;100854.80;102692;1299;61426;-82
2023/12/07 00:03:16;;;;;;;4.70;3.40;;;;;;;23.22;31.34;100853.17;102432;1297;75322;-82
2023/12/07 00:05:42;;;;;;;4.60;3.00;;;;;;;23.22;31.28;100851.92;102698;1296;62440;-81
2023/12/07 00:08:12;;;;;;;6.00;3.30;;;;;;;23.22;31.41;100849.78;102633;1298;61778;-82
2023/12/07 00:10:37;;;;;;;4.70;3.10;;;;;;;23.22;31.28;100848.52;102703;1299;72701;-82
2023/12/07 00:13:03;;;;;;;4.60;3.20;;;;;;;23.21;31.19;100846.92;103134;1297;61443;-82
2023/12/07 00:15:29;;;;;;;5.00;3.30;;;;;;;23.22;31.27;100846.02;103096;1293;61399;-81
2023/12/07 00:17:54;;;;;;;5.00;3.30;;;;;;;23.22;31.17;100846.48;103134;1297;61392;-81
2023/12/07 00:20:20;;;;;;;5.60;3.20;;;;;;;23.23;31.29;100850.38;103145;1296;61415;-82
2023/12/07 00:22:46;;;;;;;5.70;3.50;;;;;;;23.23;31.21;100851.44;103171;1294;61507;-81
2023/12/07 00:25:11;;;;;;;4.80;3.50;;;;;;;23.24;31.18;100854.27;102803;1297;61352;-81
2023/12/07 00:27:37;;;;;;;4.40;3.10;;;;;;;23.23;31.22;100853.95;103095;1292;61402;-81
2023/12/07 00:30:03;;;;;;;5.10;3.50;;;;;;;23.25;31.13;100860.11;103096;1293;62089;-82
2023/12/07 00:32:29;;;;;;;6.60;3.10;;;;;;;23.24;31.19;100861.23;102919;1296;61517;-82
2023/12/07 00:34:55;;;;;;;5.50;3.60;;;;;;;23.25;31.07;100862.82;103010;1293;61427;-82
2023/12/07 00:37:20;;;;;;;4.70;3.30;;;;;;;23.25;31.14;100867.30;102941;1297;61308;-81
2023/12/07 00:39:46;;;;;;;5.30;3.30;;;;;;;23.25;31.11;100861.52;103367;1294;61394;-82
2023/12/07 00:42:12;;;;;;;5.20;3.60;;;;;;;23.26;31.13;100862.55;102689;1299;62134;-82
2023/12/07 00:44:41;;;;;;;4.70;3.40;;;;;;;23.26;31.08;100868.29;102874;1299;61299;-81
2023/12/07 00:47:07;;;;;;;4.60;3.20;;;;;;;23.27;31.03;100870.04;102928;1294;74380;-82
2023/12/07 00:49:32;;;;;;;5.30;3.20;;;;;;;23.27;31.08;100874.52;103051;1294;61403;-82
2023/12/07 00:51:58;;;;;;;4.40;3.10;;;;;;;23.27;31.02;100878.05;103089;1294;62301;-82
2023/12/07 00:54:24;;;;;;;5.30;3.30;;;;;;;23.27;30.99;100876.98;102947;1299;61812;-82
2023/12/07 00:56:49;;;;;;;4.40;3.10;;;;;;;23.28;30.97;100883.77;103308;1305;61432;-82
2023/12/07 00:59:17;;;;;;;4.50;3.00;;;;;;;23.28;30.94;100879.27;103126;1294;61430;-82
2023/12/07 01:01:43;;;;;;;6.30;3.50;;;;;;;23.28;30.95;100875.31;102962;1294;61465;-82
2023/12/07 01:04:09;;;;;;;5.10;3.30;;;;;;;23.29;30.94;100878.31;103132;1296;61379;-82
2023/12/07 01:06:35;;;;;;;4.50;3.30;;;;;;;23.29;30.95;100875.42;103186;1294;61334;-82
2023/12/07 01:09:01;;;;;;;4.40;3.00;;;;;;;23.29;30.93;100876.33;102807;1294;73424;-82
2023/12/07 01:11:26;;;;;;;4.20;3.10;;;;;;;23.30;30.97;100875.75;102928;1294;61333;-82
2023/12/07 01:13:53;;;;;;;4.50;3.10;;;;;;;23.30;30.98;100873.56;103025;1299;61529;-81
2023/12/07 01:16:19;;;;;;;4.80;3.20;;;;;;;23.30;30.90;100876.61;103321;1293;61310;-82
2023/12/07 01:18:45;;;;;;;5.50;3.50;;;;;;;23.30;30.83;100872.10;102988;1294;61495;-82
2023/12/07 01:21:12;;;;;;;5.10;3.10;;;;;;;23.31;30.92;100873.83;102968;1298;61380;-82
2023/12/07 01:23:38;;;;;;;5.00;3.40;;;;;;;23.31;30.83;100874.54;102736;1294;61386;-82
2023/12/07 01:26:03;;;;;;;4.90;3.10;;;;;;;23.32;30.83;100879.54;102917;1297;61412;-82
2023/12/07 01:28:29;;;;;;;6.70;3.40;;;;;;;23.31;30.81;100871.30;102981;1299;61390;-82
2023/12/07 01:30:55;;;;;;;5.20;3.30;;;;;;;23.32;30.87;100878.06;102796;1299;74476;-82
2023/12/07 01:33:21;;;;;;;4.90;3.20;;;;;;;23.32;30.78;100878.59;102730;1296;61358;-82
2023/12/07 01:35:47;;;;;;;5.10;3.30;;;;;;;23.32;30.79;100881.63;103148;1296;61430;-82
2023/12/07 01:38:13;;;;;;;4.60;3.10;;;;;;;23.33;30.72;100878.19;102884;1294;61365;-81
2023/12/07 01:40:38;;;;;;;5.80;3.40;;;;;;;23.33;30.68;100879.08;103154;1296;61451;-81
2023/12/07 01:43:04;;;;;;;4.70;3.20;;;;;;;23.33;30.72;100881.91;102984;1294;62379;-81
2023/12/07 01:45:29;;;;;;;5.20;3.20;;;;;;;23.33;30.76;100875.11;103034;1294;61361;-81
2023/12/07 01:47:58;;;;;;;4.80;3.30;;;;;;;23.33;30.75;100877.44;103169;1293;61420;-81
2023/12/07 01:50:24;;;;;;;4.10;2.80;;;;;;;23.34;30.73;100881.35;102902;1298;72599;-81
2023/12/07 01:52:55;;;;;;;4.50;3.10;;;;;;;23.33;30.69;100877.41;102935;1297;74412;-81
2023/12/07 01:55:22;;;;;;;5.10;3.20;;;;;;;23.34;30.71;100874.32;103072;1293;61396;-81
2023/12/07 01:57:49;;;;;;;4.60;3.10;;;;;;;23.34;30.56;100871.42;103066;1294;61420;-81
2023/12/07 02:00:19;;;;;;;4.60;3.30;;;;;;;23.35;30.62;100865.65;103188;1296;72553;-81
2023/12/07 02:02:45;;;;;;;4.50;3.10;;;;;;;23.34;30.62;100867.83;103166;1296;61677;-81
2023/12/07 02:05:12;;;;;;;4.80;3.30;;;;;;;23.35;30.68;100871.04;102858;1294;61325;-81
2023/12/07 02:07:37;;;;;;;4.80;3.20;;;;;;;23.35;30.56;100869.74;102877;1294;61366;-81
2023/12/07 02:10:03;;;;;;;5.00;3.20;;;;;;;23.35;30.57;100875.52;103063;1294;61899;-81
2023/12/07 02:12:29;;;;;;;4.50;3.30;;;;;;;23.35;30.61;100880.88;102748;1293;61428;-82
2023/12/07 02:14:55;;;;;;;4.80;3.30;;;;;;;23.35;30.57;100887.15;103212;1292;61497;-80
2023/12/07 02:17:40;;;;;;;4.60;3.40;;;;;;;23.35;30.50;100887.14;102909;1294;61392;-81
2023/12/07 02:20:21;;;;;;;4.90;3.30;;;;;;;23.36;30.53;100888.20;103008;1292;71201;-81
2023/12/07 02:22:52;;;;;;;5.00;3.30;;;;;;;23.35;30.46;100883.39;103212;1296;74482;-81
2023/12/07 02:25:18;;;;;;;4.90;3.40;;;;;;;23.35;30.47;100884.80;102757;1297;61371;-81
2023/12/07 02:27:45;;;;;;;4.90;3.20;;;;;;;23.36;30.52;100887.64;103060;1298;61322;-81
2023/12/07 02:30:11;;;;;;;5.00;2.90;;;;;;;23.36;30.50;100890.48;103284;1298;72461;-81
2023/12/07 02:32:37;;;;;;;5.20;3.10;;;;;;;23.36;30.48;100886.70;103191;1294;61423;-81
2023/12/07 02:35:04;;;;;;;4.60;3.10;;;;;;;23.36;30.45;100882.93;102877;1297;61351;-82
2023/12/07 02:37:37;;;;;;;4.80;3.10;;;;;;;23.37;30.42;100886.13;102798;1294;61422;-81
2023/12/07 02:40:04;;;;;;;4.30;3.00;;;;;;;23.37;30.41;100886.82;103134;1293;72367;-82
2023/12/07 02:42:29;;;;;;;4.40;3.20;;;;;;;23.37;30.45;100886.47;103210;1292;74245;-82
2023/12/07 02:44:55;;;;;;;5.00;3.40;;;;;;;23.37;30.43;100891.80;102869;1297;61296;-81
2023/12/07 02:47:21;;;;;;;4.20;3.10;;;;;;;23.38;30.46;100894.11;103122;1298;61524;-81
2023/12/07 02:49:48;;;;;;;4.70;3.20;;;;;;;23.38;30.36;100895.58;102859;1293;61338;-82
2023/12/07 02:52:14;;;;;;;4.40;3.20;;;;;;;23.38;30.29;100893.77;103082;1294;63046;-82
2023/12/07 02:54:40;;;;;;;4.60;3.10;;;;;;;23.38;30.31;100895.39;103104;1294;61306;-82
2023/12/07 02:57:05;;;;;;;4.30;3.10;;;;;;;23.38;30.36;100900.04;103082;1294;61418;-82
2023/12/07 02:59:31;;;;;;;4.70;3.00;;;;;;;23.38;30.28;100897.71;103226;1296;61433;-82
2023/12/07 03:01:57;;;;;;;5.30;3.10;;;;;;;23.38;30.27;100897.66;102826;1297;71592;-82
2023/12/07 03:04:22;;;;;;;4.90;3.00;;;;;;;23.39;30.36;100902.47;102795;1299;61454;-82
2023/12/07 03:06:48;;;;;;;4.50;3.10;;;;;;;23.39;30.24;100896.73;103261;1294;61350;-81
2023/12/07 03:09:14;;;;;;;4.80;3.00;;;;;;;23.39;30.31;100896.91;102935;1294;61332;-82
2023/12/07 03:11:40;;;;;;;5.00;3.00;;;;;;;23.39;30.24;100902.44;102924;1294;61430;-82
2023/12/07 03:14:05;;;;;;;4.30;3.00;;;;;;;23.40;30.30;100906.89;102822;1297;61848;-80
2023/12/07 03:16:31;;;;;;;4.80;3.20;;;;;;;23.40;30.32;100909.78;102767;1296;74315;-80
2023/12/07 03:18:57;;;;;;;4.50;3.00;;;;;;;23.40;30.20;100909.75;102991;1293;61451;-81
2023/12/07 03:21:22;;;;;;;4.60;3.00;;;;;;;23.40;30.23;100912.60;103163;1294;61500;-81
2023/12/07 03:23:49;;;;;;;4.60;2.90;;;;;;;23.40;30.27;100916.55;102870;1294;62103;-81
2023/12/07 03:26:16;;;;;;;4.80;2.80;;;;;;;23.40;30.11;100917.96;103189;1293;61325;-80
2023/12/07 03:28:41;;;;;;;5.00;3.10;;;;;;;23.41;30.22;100914.53;103194;1294;61318;-81
2023/12/07 03:31:07;;;;;;;4.50;3.00;;;;;;;23.41;30.15;100922.23;103119;1293;61401;-81
2023/12/07 03:33:33;;;;;;;4.40;2.80;;;;;;;23.41;30.21;100915.75;103303;1296;61328;-80
2023/12/07 03:35:59;;;;;;;3.90;2.80;;;;;;;23.42;30.23;100919.31;102982;1299;61774;-81
2023/12/07 03:38:24;;;;;;;3.90;2.70;;;;;;;23.41;30.11;100920.60;103273;1294;61415;-81
2023/12/07 03:40:50;;;;;;;4.40;3.20;;;;;;;23.41;30.10;100921.15;102886;1294;61438;-80
2023/12/07 03:43:19;;;;;;;4.50;3.00;;;;;;;23.41;30.15;100924.19;102938;1294;61448;-81
2023/12/07 03:45:45;;;;;;;;;;;;;;;23.42;30.09;100921.05;103059;1294;73664;-81
2023/12/07 03:48:11;;;;;;;3.90;2.80;;;;;;;23.40;30.25;100922.89;103174;1294;61505;-80
2023/12/07 03:50:36;;;;;;;3.90;2.80;;;;;;;23.41;30.07;100921.19;103148;1292;61491;-81
2023/12/07 03:53:02;;;;;;;5.40;3.10;;;;;;;23.40;30.15;100917.06;102810;1299;61371;-81
2023/12/07 03:55:27;;;;;;;4.50;3.00;;;;;;;23.41;30.05;100920.98;103147;1292;61322;-81
2023/12/07 03:57:53;;;;;;;4.50;3.00;;;;;;;23.41;30.10;100914.66;103029;1294;72256;-81
2023/12/07 04:00:19;;;;;;;4.50;3.00;;;;;;;23.42;30.03;100915.70;102954;1294;62116;-81
2023/12/07 04:02:44;;;;;;;4.40;2.90;;;;;;;23.42;30.04;100915.48;102915;1293;61448;-81
2023/12/07 04:05:12;;;;;;;3.50;2.60;;;;;;;23.42;29.99;100911.55;103202;1294;61385;-81
2023/12/07 04:07:38;;;;;;;4.30;2.70;;;;;;;23.42;30.02;100910.81;103214;1293;61360;-81
2023/12/07 04:10:06;;;;;;;4.50;2.70;;;;;;;23.42;30.00;100916.91;102788;1293;61403;-80
2023/12/07 04:12:32;;;;;;;4.00;2.60;;;;;;;23.43;29.99;100914.19;103217;1294;61436;-81
2023/12/07 04:14:58;;;;;;;4.30;2.80;;;;;;;23.43;29.96;100916.85;103205;1293;61317;-81
2023/12/07 04:17:24;;;;;;;4.60;2.80;;;;;;;23.44;30.02;100921.48;103183;1294;61363;-81
2023/12/07 04:19:50;;;;;;;5.10;2.80;;;;;;;23.43;30.03;100918.82;102910;1294;61449;-81
2023/12/07 04:22:15;;;;;;;4.00;2.90;;;;;;;23.44;29.90;100921.83;102933;1293;61355;-81
2023/12/07 04:24:41;;;;;;;4.90;2.80;;;;;;;23.44;29.92;100926.48;103324;1292;61424;-81
2023/12/07 04:27:07;;;;;;;4.00;2.90;;;;;;;23.44;29.98;100924.30;103052;1293;61316;-81
2023/12/07 04:29:32;;;;;;;4.30;2.90;;;;;;;23.44;29.93;100927.90;103325;1294;61370;-81
2023/12/07 04:31:58;;;;;;;3.70;2.60;;;;;;;23.44;29.89;100927.94;103086;1294;61325;-82
2023/12/07 04:34:24;;;;;;;4.60;3.00;;;;;;;23.44;29.84;100930.11;103069;1294;61334;-82
2023/12/07 04:36:50;;;;;;;4.20;2.70;;;;;;;23.43;29.90;100928.55;103094;1292;61395;-83
2023/12/07 04:39:15;;;;;;;4.60;3.00;;;;;;;23.43;29.94;100930.89;102693;1293;61460;-83
2023/12/07 04:41:42;;;;;;;4.30;2.70;;;;;;;23.43;29.85;100927.63;103082;1292;72702;-82
2023/12/07 04:44:07;;;;;;;4.40;3.00;;;;;;;23.43;29.82;100929.81;102937;1294;61896;-83
2023/12/07 04:46:33;;;;;;;4.10;3.10;;;;;;;23.43;29.65;100931.04;103141;1292;61397;-82
2023/12/07 04:48:59;;;;;;;7.80;2.90;;;;;;;23.42;29.60;100932.90;102717;1292;61443;-82
2023/12/07 04:51:24;;;;;;;4.50;3.00;;;;;;;23.42;29.44;100935.42;103065;1296;61340;-83
2023/12/07 04:53:50;;;;;;;4.70;3.10;;;;;;;23.42;29.41;100936.90;102856;1294;61392;-83
2023/12/07 04:56:16;;;;;;;4.70;3.10;;;;;;;23.41;29.31;100937.67;102641;1294;61750;-83
2023/12/07 04:58:41;;;;;;;4.40;3.10;;;;;;;23.41;29.33;100944.14;103059;1296;61338;-82
2023/12/07 05:01:07;;;;;;;4.70;3.30;;;;;;;23.40;29.13;100938.80;103246;1293;61390;-81
2023/12/07 05:03:32;;;;;;;4.90;3.20;;;;;;;23.40;29.02;100941.52;102984;1295;61413;-82
2023/12/07 05:05:58;;;;;;;4.60;3.40;;;;;;;23.40;29.00;100944.95;103013;1294;61525;-81
2023/12/07 05:08:24;;;;;;;4.20;3.20;;;;;;;23.39;28.82;100949.67;103057;1298;74520;-81
2023/12/07 05:10:49;;;;;;;6.90;3.80;;;;;;;23.38;28.75;100946.70;103004;1294;61515;-81
2023/12/07 05:13:15;;;;;;;4.20;2.80;;;;;;;23.37;28.67;100947.46;103253;1297;61371;-81
2023/12/07 05:15:41;;;;;;;4.70;3.40;;;;;;;23.38;28.53;100953.02;102951;1299;61377;-81
2023/12/07 05:18:06;;;;;;;4.60;3.50;;;;;;;23.37;28.44;100953.23;102813;1295;61531;-81
2023/12/07 05:20:32;;;;;;;4.10;3.30;;;;;;;23.37;28.30;100951.48;102923;1293;61466;-80
2023/12/07 05:22:58;;;;;;;6.60;3.80;;;;;;;23.36;28.25;100957.10;103098;1293;61443;-81
2023/12/07 05:25:23;;;;;;;5.00;3.60;;;;;;;23.36;28.13;100955.46;103231;1293;61347;-81
2023/12/07 05:27:49;;;;;;;5.60;3.70;;;;;;;23.36;28.02;100957.67;103164;1293;61285;-80
2023/12/07 05:30:15;;;;;;;5.30;3.70;;;;;;;23.35;27.95;100962.25;103043;1292;61408;-83
2023/12/07 05:32:41;;;;;;;6.20;4.00;;;;;;;23.34;28.00;100963.02;103311;1294;61428;-83
2023/12/07 05:35:07;;;;;;;5.00;3.70;;;;;;;23.33;27.85;100964.34;103394;1293;61341;-81
2023/12/07 05:37:32;;;;;;;5.10;3.80;;;;;;;23.30;27.88;100964.97;103428;1293;61268;-81
2023/12/07 05:39:58;;;;;;;6.00;4.30;;;;;;;23.25;27.73;100968.02;103443;1293;61386;-81
2023/12/07 05:42:24;;;;;;;5.20;4.00;;;;;;;23.21;27.75;100965.50;103167;1293;63302;-80
2023/12/07 05:44:49;;;;;;;5.70;4.10;;;;;;;23.16;27.78;100968.68;103476;1294;61327;-81
2023/12/07 05:47:15;;;;;;;4.90;3.70;;;;;;;23.11;27.93;100975.73;103235;1294;61320;-81
2023/12/07 05:49:43;;;;;;;7.80;4.40;;;;;;;23.06;27.97;100973.77;103331;1293;61415;-80
2023/12/07 05:52:08;;;;;;;5.10;4.10;;;;;;;23.02;27.80;100974.11;103431;1292;61212;-79
2023/12/07 05:54:34;;;;;;;6.50;5.00;;;;;;;22.96;27.87;100981.21;103501;1299;61406;-80
2023/12/07 05:57:00;;;;;;;6.60;4.60;;;;;;;22.84;27.84;100980.98;104349;1299;61284;-80
2023/12/07 05:59:25;;;;;;;11.60;4.90;;;;;;;22.75;27.75;100983.84;104048;1293;61326;-80
2023/12/07 06:01:53;;;;;;;6.80;4.30;;;;;;;22.63;27.68;100988.87;103699;1293;61387;-79
2023/12/07 06:04:19;;;;;;;7.10;4.60;;;;;;;22.50;27.82;100995.41;103875;1293;61304;-82
2023/12/07 06:06:45;;;;;;;10.70;5.20;;;;;;;22.39;27.85;100997.43;104078;1293;61369;-79
2023/12/07 06:09:11;;;;;;;6.20;4.70;;;;;;;22.18;27.82;101000.58;104240;1293;59351;-82
2023/12/07 06:11:37;;;;;;;5.10;3.40;;;;;;;22.10;27.91;101003.08;103961;1296;61175;-82
2023/12/07 06:14:05;;;;;;;5.70;4.00;;;;;;;22.10;28.26;101000.07;103837;1293;61306;-79
2023/12/07 06:16:31;;;;;;;7.10;4.30;;;;;;;22.10;28.28;101003.86;103635;1293;61476;-81
2023/12/07 06:18:57;;;;;;;5.50;4.20;;;;;;;22.09;28.25;101004.79;103558;1293;59132;-82
2023/12/07 06:21:22;;;;;;;6.30;4.10;;;;;;;22.12;28.05;101003.90;103432;1294;58988;-82
2023/12/07 06:23:48;;;;;;;8.40;4.30;;;;;;;22.16;28.13;101005.19;103436;1293;61422;-81
2023/12/07 06:26:14;;;;;;;6.40;5.40;;;;;;;22.20;28.00;101008.14;103607;1293;63279;-79
2023/12/07 06:28:40;;;;;;;7.60;5.00;;;;;;;22.22;27.79;101014.27;103668;1293;62053;-80
2023/12/07 06:31:08;;;;;;;7.70;4.60;;;;;;;22.23;27.84;101014.02;104093;1294;61376;-81
2023/12/07 06:33:34;;;;;;;10.40;5.50;;;;;;;22.22;27.60;101013.90;103909;1294;71690;-79
2023/12/07 06:36:03;;;;;;;12.30;5.90;;;;;;;22.20;27.82;101013.29;103851;1292;61399;-80
2023/12/07 06:38:28;;;;;;;9.90;5.40;;;;;;;22.18;28.02;101013.50;103655;1299;61256;-79
2023/12/07 06:40:54;;;;;;;9.20;6.10;;;;;;;22.15;28.43;101012.82;103706;1293;60255;-79
2023/12/07 06:43:20;;;;;;;8.70;5.70;;;;;;;22.06;28.69;101016.27;104007;1293;61311;-79
2023/12/07 06:45:45;;;;;;;13.90;6.40;;;;;;;21.86;28.74;101017.16;103657;1293;61354;-78
2023/12/07 06:48:11;;;;;;;6.40;5.60;;;;;;;21.73;28.80;101014.36;103693;1293;61382;-80
2023/12/07 06:50:37;;;;;;;10.40;6.10;;;;;;;21.66;28.81;101014.46;103667;1298;61192;-78
2023/12/07 06:53:03;;;;;;;6.90;5.70;;;;;;;21.59;28.58;101018.88;103587;1293;61271;-82
2023/12/07 06:55:28;;;;;;;6.30;5.20;;;;;;;21.55;28.40;101022.41;103704;1293;61061;-79
2023/12/07 06:57:55;;;;;;;10.10;5.10;;;;;;;21.54;28.43;101017.48;103785;1294;61691;-79
2023/12/07 07:00:21;;;;;;;7.90;4.70;;;;;;;21.56;28.48;101015.35;104132;1293;61438;-78
2023/12/07 07:02:47;;;;;;;11.50;4.90;;;;;;;21.61;28.90;101018.59;103832;1293;61206;-79
2023/12/07 07:05:13;;;;;;;10.30;5.10;;;;;;;21.66;28.85;101017.90;103861;1292;61229;-78
2023/12/07 07:07:38;;;;;;;8.20;5.00;;;;;;;21.70;28.86;101016.16;103592;1293;61481;-79
2023/12/07 07:10:05;;;;;;;10.50;4.70;;;;;;;21.73;28.97;101015.75;103548;1293;59277;-79
2023/12/07 07:12:31;;;;;;;8.40;5.10;;;;;;;21.77;28.76;101020.00;103693;1296;61282;-79
2023/12/07 07:14:56;;;;;;;8.40;4.70;;;;;;;21.79;28.77;101016.83;103808;1293;61224;-80
2023/12/07 07:17:22;;;;;;;7.30;4.80;;;;;;;21.81;28.80;101012.38;103530;1292;61341;-80
2023/12/07 07:19:47;;;;;;;6.80;4.80;;;;;;;21.82;28.57;101013.35;103618;1293;61419;-78
2023/12/07 07:22:13;;;;;;;7.30;5.10;;;;;;;21.84;28.51;101016.30;103790;1293;61285;-79
2023/12/07 07:24:39;;;;;;;7.90;4.70;;;;;;;21.86;28.38;101018.79;103376;1294;61291;-80
2023/12/07 07:27:05;;;;;;;6.50;4.60;;;;;;;21.87;28.33;101021.40;103634;1293;61289;-80
2023/12/07 07:29:32;;;;;;;6.00;4.60;;;;;;;21.87;28.22;101019.42;103656;1293;61737;-78
2023/12/07 07:31:58;;;;;;;6.60;4.60;;;;;;;21.89;28.12;101023.45;103438;1294;74389;-78
2023/12/07 07:34:25;;;;;;;8.00;4.70;;;;;;;21.89;28.02;101025.36;103311;1296;61326;-78
2023/12/07 07:36:50;;;;;;;7.40;4.80;;;;;;;21.92;27.96;101031.64;103459;1293;284942;-78
2023/12/07 07:39:16;;;;;;;7.60;4.60;;;;;;;21.95;27.99;101032.70;103527;1294;61652;-78
2023/12/07 07:41:41;;;;;;;7.00;4.60;;;;;;;21.98;27.96;101034.42;103803;1293;61280;-79
2023/12/07 07:44:07;;;;;;;9.50;4.70;;;;;;;22.02;27.81;101033.96;103606;1293;61406;-78
2023/12/07 07:46:33;;;;;;;7.20;4.60;;;;;;;22.05;28.00;101032.69;104123;1293;61378;-78
2023/12/07 07:48:59;;;;;;;8.10;4.50;;;;;;;22.08;27.97;101042.64;103778;1294;61339;-79
2023/12/07 07:51:25;;;;;;;6.10;4.70;;;;;;;22.12;27.92;101038.99;103857;1294;60331;-79
2023/12/07 07:53:50;;;;;;;18.20;4.80;;;;;;;22.16;27.87;101046.04;103743;1294;61403;-78
2023/12/07 07:56:16;;;;;;;8.90;4.90;;;;;;;22.19;28.11;101044.95;103929;1298;61418;-78
2023/12/07 07:58:42;;;;;;;13.20;4.10;;;;;;;22.23;28.22;101048.73;103653;1293;61326;-79
2023/12/07 08:01:07;;;;;;;18.90;4.10;;;;;;;22.28;28.44;101052.36;103885;1294;61360;-79
2023/12/07 08:03:34;;;;;;;15.40;4.60;;;;;;;22.32;28.85;101056.38;103695;1294;72705;-78
2023/12/07 08:05:59;;;;;;;9.40;3.50;;;;;;;22.34;29.15;101059.11;103883;1293;61279;-78
2023/12/07 08:08:26;;;;;;;12.90;4.10;;;;;;;22.36;29.32;101060.08;103543;1299;61230;-79
2023/12/07 08:10:52;;;;;;;9.80;3.90;;;;;;;22.38;29.44;101062.30;103828;1293;61316;-80
2023/12/07 08:13:18;;;;;;;12.20;4.20;;;;;;;22.38;29.32;101060.81;103716;1293;61469;-78
2023/12/07 08:15:44;;;;;;;15.00;4.40;;;;;;;22.39;29.24;101060.92;103690;1292;61945;-78
2023/12/07 08:18:10;;;;;;;8.50;4.00;;;;;;;22.39;29.17;101062.70;103696;1293;61421;-80
2023/12/07 08:20:37;;;;;;;8.60;4.10;;;;;;;22.40;29.00;101064.63;103441;1294;61440;-82
2023/12/07 08:23:03;;;;;;;7.10;4.10;;;;;;;22.39;28.99;101064.31;103762;1293;63299;-80
2023/12/07 08:25:29;;;;;;;6.00;3.90;;;;;;;22.39;28.75;101064.33;103398;1293;61488;-79
2023/12/07 08:27:55;;;;;;;8.10;3.90;;;;;;;22.39;28.76;101064.16;103497;1293;61380;-79
2023/12/07 08:30:20;;;;;;;7.70;4.20;;;;;;;22.38;28.58;101063.33;103541;1293;61380;-78
2023/12/07 08:32:47;;;;;;;7.60;4.70;;;;;;;22.37;28.68;101067.00;103723;1293;62545;-79
2023/12/07 08:35:12;;;;;;;5.90;4.10;;;;;;;22.36;28.69;101073.33;103561;1293;60400;-79
2023/12/07 08:37:41;;;;;;;8.50;4.40;;;;;;;22.35;28.58;101075.77;103995;1293;61443;-78
2023/12/07 08:40:11;;;;;;;;;;;;;;;22.33;28.53;101073.34;103507;1293;61301;-81
2023/12/07 08:42:37;;;;;;;6.70;4.30;;;;;;;22.28;28.58;101074.73;105230;1297;59993;-79
2023/12/07 08:45:03;;;;;;;7.80;4.50;;;;;;;22.28;28.33;101071.92;105222;1296;59529;-79
2023/12/07 08:47:31;;;;;;;6.30;4.40;;;;;;;22.27;28.45;101071.06;105296;1296;58461;-79
2023/12/07 08:49:57;;;;;;;7.10;4.40;;;;;;;22.26;28.29;101069.14;105078;1297;59910;-79
2023/12/07 08:52:22;;;;;;;7.80;5.40;;;;;;;22.26;28.26;101069.17;105167;1296;59138;-79
2023/12/07 08:54:48;;;;;;;8.40;4.40;;;;;;;22.25;28.12;101067.98;105228;1296;59787;-79
2023/12/07 08:57:14;;;;;;;8.30;4.60;;;;;;;22.23;27.99;101071.19;105132;1297;59114;-78
2023/12/07 08:59:40;;;;;;;18.60;5.20;;;;;;;22.23;28.13;101072.48;105113;1299;59857;-79
2023/12/07 09:02:05;;;;;;;10.70;4.80;;;;;;;22.24;28.20;101069.52;105081;1296;59010;-78
2023/12/07 09:04:31;;;;;;;8.30;4.70;;;;;;;22.24;28.22;101073.22;105407;1297;59394;-79
2023/12/07 09:06:57;;;;;;;9.50;4.90;;;;;;;22.23;28.11;101064.54;104717;1297;61502;-80
2023/12/07 09:09:23;;;;;;;10.10;4.60;;;;;;;22.23;28.15;101069.05;104359;1296;61307;-79
2023/12/07 09:11:49;;;;;;;7.50;4.60;;;;;;;22.21;28.20;101068.28;104429;1296;60252;-79
2023/12/07 09:14:15;;;;;;;10.50;4.40;;;;;;;22.21;28.25;101067.22;104607;1297;60186;-79
2023/12/07 09:16:44;;;;;;;8.40;4.30;;;;;;;22.19;28.16;101064.83;104416;1297;61339;-82
2023/12/07 09:19:12;;;;;;;9.70;4.20;;;;;;;22.19;27.97;101064.45;104254;1297;74728;-79
2023/12/07 09:21:38;;;;;;;7.70;4.30;;;;;;;22.19;27.87;101065.56;104321;1296;61142;-80
2023/12/07 09:24:05;;;;;;;10.70;4.50;;;;;;;22.19;27.86;101063.63;104090;1296;61372;-81
2023/12/07 09:26:32;;;;;;;8.00;3.90;;;;;;;22.21;28.08;101063.63;103906;1295;72846;-81
2023/12/07 09:28:58;;;;;;;11.10;3.80;;;;;;;22.22;27.99;101063.77;104114;1297;61450;-83
2023/12/07 09:31:23;;;;;;;6.10;3.80;;;;;;;22.22;28.13;101063.39;104249;1296;61360;-80
2023/12/07 09:33:49;;;;;;;6.60;3.70;;;;;;;22.22;28.03;101063.38;104307;1292;60903;-79
2023/12/07 09:36:24;;;;;;;10.40;3.90;;;;;;;22.21;28.28;101057.32;104495;1293;61380;-81
2023/12/07 09:38:49;;;;;;;6.90;4.00;;;;;;;22.21;28.41;101061.65;104004;1293;74525;-80
2023/12/07 09:41:15;;;;;;;8.30;4.00;;;;;;;22.21;28.37;101058.45;104502;1293;59962;-81
2023/12/07 09:43:41;;;;;;;7.60;4.90;;;;;;;22.19;28.42;101061.42;103988;1301;59617;-80
2023/12/07 09:46:07;;;;;;;9.70;4.70;;;;;;;22.13;28.33;101060.63;103847;1293;61462;-78
2023/12/07 09:48:32;;;;;;;9.80;4.90;;;;;;;22.08;28.12;101059.38;104084;1293;61489;-79
2023/12/07 09:51:00;;;;;;;7.60;4.80;;;;;;;21.99;28.01;101058.39;104146;1292;61311;-79
2023/12/07 09:53:28;;;;;;;21.10;5.90;;;;;;;21.90;27.91;101057.73;103911;1293;60088;-79
2023/12/07 09:55:53;;;;;;;17.80;6.40;;;;;;;21.82;29.07;101056.18;104228;1293;60327;-79
2023/12/07 09:58:19;;;;;;;15.20;6.20;;;;;;;21.65;29.56;101055.40;104302;1291;61336;-79
2023/12/07 10:00:45;;;;;;;11.10;6.60;;;;;;;21.25;29.33;101058.29;104531;1293;60488;-79
2023/12/07 10:03:20;;;;;;;9.90;5.40;;;;;;;20.99;29.44;101055.33;104355;1293;61822;-80
2023/12/07 10:05:59;;;;;;;12.40;5.60;;;;;;;20.91;29.52;101059.23;104571;1293;60471;-80
2023/12/07 10:08:33;;;;;;;11.50;5.60;;;;;;;20.89;29.69;101056.38;104282;1292;72497;-81
2023/12/07 10:11:09;;;;;;;9.70;7.10;;;;;;;20.88;29.67;101058.02;104120;1292;75196;-82
2023/12/07 10:13:35;;;;;;;11.50;5.40;;;;;;;20.71;29.28;101051.31;103863;1294;61363;-80
2023/12/07 10:16:16;;;;;;;9.40;5.10;;;;;;;20.68;29.41;101054.52;104179;1294;61277;-79
2023/12/07 10:18:41;;;;;;;7.90;5.00;;;;;;;20.74;29.60;101050.20;104431;1296;60704;-82
2023/12/07 10:21:10;;;;;;;10.30;5.00;;;;;;;20.81;29.35;101051.55;104131;1293;61440;-80
2023/12/07 10:23:39;;;;;;;9.40;5.00;;;;;;;20.87;29.43;101052.75;103801;1293;60108;-79
2023/12/07 10:26:06;;;;;;;10.80;4.70;;;;;;;20.92;29.39;101053.31;103614;1293;61409;-79
2023/12/07 10:28:40;;;;;;;9.40;4.50;;;;;;;20.97;29.26;101052.83;103613;1299;72424;-81
2023/12/07 10:31:08;;;;;;;11.90;5.70;;;;;;;21.02;29.29;101051.79;105592;1292;74629;-80
2023/12/07 10:33:35;;;;;;;11.00;5.30;;;;;;;21.06;29.43;101051.27;105706;1294;59882;-79
2023/12/07 10:36:03;;;;;;;12.10;5.40;;;;;;;21.10;29.41;101051.02;104666;1293;61395;-78
2023/12/07 10:38:30;;;;;;;7.10;5.20;;;;;;;21.16;29.33;101050.13;103825;1293;72366;-82
2023/12/07 10:41:08;;;;;;;8.50;5.00;;;;;;;21.20;29.39;101045.72;104351;1293;74585;-82
2023/12/07 10:43:36;;;;;;;13.40;5.60;;;;;;;21.25;29.21;101047.85;104172;1292;61298;-81
2023/12/07 10:46:04;;;;;;;19.00;6.40;;;;;;;21.29;29.39;101046.73;103757;1293;61412;-83
2023/12/07 10:48:30;;;;;;;10.80;5.80;;;;;;;21.34;29.60;101047.27;103663;1296;71622;-82
2023/12/07 10:50:56;;;;;;;14.40;6.00;;;;;;;21.38;29.93;101046.46;103898;1293;75761;-83
2023/12/07 10:53:27;;;;;;;12.90;6.00;;;;;;;21.38;29.93;101049.31;104127;1294;61354;-80
2023/12/07 10:55:56;;;;;;;15.40;6.50;;;;;;;21.36;29.78;101048.54;104149;1292;60463;-79
2023/12/07 10:58:22;;;;;;;;;;;;;;;21.37;29.88;101046.70;103928;1294;73349;-79
2023/12/07 11:00:48;;;;;;;12.50;7.60;;;;;;;21.30;29.83;101045.77;104347;1293;59136;-80
2023/12/07 11:03:16;;;;;;;14.40;7.70;;;;;;;21.06;29.71;101045.20;104588;1294;61386;-82
2023/12/07 11:05:47;;;;;;;16.40;6.80;;;;;;;20.71;29.80;101048.23;104425;1293;60194;-80
2023/12/07 11:08:17;;;;;;;;;;;;;;;20.47;30.16;101045.30;104226;1296;72559;-80
2023/12/07 11:10:49;;;;;;;11.20;6.60;;;;;;;20.39;30.47;101047.26;104143;1293;74391;-79
2023/12/07 11:13:21;;;;;;;13.80;7.30;;;;;;;20.38;30.52;101048.06;104178;1293;61109;-79